sensor_id;sensor_type;location;lat;lon;timestamp;pressure;altitude;pressure_sealevel;temperature;humidity
4133;BME280;2080;51.038;7.008;2023-03-16T00:02:10;77676.31;;;-142.53;100.00
4133;BME280;2080;51.038;7.008;2023-03-16T00:04:38;77668.56;;;-142.53;100.00
4133;BME280;2080;51.038;7.008;2023-03-16T00:07:09;77672.44;;;-142.53;100.00
4133;BME280;2080;51.038;7.008;2023-03-16T00:09:35;77674.38;;;-142.53;100.00
4133;BME280;2080;51.038;7.008;2023-03-16T00:12:07;77664.66;;;-142.53;100.00
4133;BME280;2080;51.038;7.008;2023-03-16T00:14:41;77664.66;;;-142.53;100.00
4133;BME280;2080;51.038;7.008;2023-03-16T00:17:11;77656.91;;;-142.53;100.00
4133;BME280;2080;51.038;7.008;2023-03-16T00:22:14;77662.72;;;-142.53;100.00
4133;BME280;2080;51.038;7.008;2023-03-16T00:24:42;77660.78;;;-142.53;100.00
4133;BME280;2080;51.038;7.008;2023-03-16T00:27:11;77649.13;;;-142.53;100.00
4133;BME280;2080;51.038;7.008;2023-03-16T00:29:46;77645.25;;;-142.53;100.00
4133;BME280;2080;51.038;7.008;2023-03-16T00:32:25;77641.34;;;-142.53;100.00
4133;BME280;2080;51.038;7.008;2023-03-16T00:34:53;77641.34;;;-142.53;100.00
4133;BME280;2080;51.038;7.008;2023-03-16T00:37:23;77633.59;;;-142.53;100.00
4133;BME280;2080;51.038;7.008;2023-03-16T00:39:54;77639.41;;;-142.53;100.00
4133;BME280;2080;51.038;7.008;2023-03-16T00:42:21;77629.69;;;-142.53;100.00
4133;BME280;2080;51.038;7.008;2023-03-16T00:44:58;77629.69;;;-142.53;100.00
4133;BME280;2080;51.038;7.008;2023-03-16T00:47:28;77621.94;;;-142.53;100.00
4133;BME280;2080;51.038;7.008;2023-03-16T00:49:54;77610.28;;;-142.53;100.00
4133;BME280;2080;51.038;7.008;2023-03-16T00:52:24;77602.50;;;-142.53;100.00
4133;BME280;2080;51.038;7.008;2023-03-16T00:54:54;77610.28;;;-142.53;100.00
4133;BME280;2080;51.038;7.008;2023-03-16T00:57:25;77606.38;;;-142.53;100.00
4133;BME280;2080;51.038;7.008;2023-03-16T00:59:51;77594.72;;;-142.53;100.00
4133;BME280;2080;51.038;7.008;2023-03-16T01:02:20;77583.06;;;-142.53;100.00
4133;BME280;2080;51.038;7.008;2023-03-16T01:04:49;77588.91;;;-142.53;100.00
4133;BME280;2080;51.038;7.008;2023-03-16T01:07:18;77598.59;;;-142.53;100.00
4133;BME280;2080;51.038;7.008;2023-03-16T01:09:43;77598.59;;;-142.53;100.00
4133;BME280;2080;51.038;7.008;2023-03-16T01:12:12;77588.91;;;-142.53;100.00
4133;BME280;2080;51.038;7.008;2023-03-16T01:14:38;77579.19;;;-142.53;100.00
4133;BME280;2080;51.038;7.008;2023-03-16T01:17:08;77575.28;;;-142.53;100.00
4133;BME280;2080;51.038;7.008;2023-03-16T01:19:35;77567.53;;;-142.53;100.00
4133;BME280;2080;51.038;7.008;2023-03-16T01:22:04;77548.09;;;-142.53;100.00
4133;BME280;2080;51.038;7.008;2023-03-16T01:24:30;77540.31;;;-142.53;100.00
4133;BME280;2080;51.038;7.008;2023-03-16T01:26:55;77532.53;;;-142.53;100.00
4133;BME280;2080;51.038;7.008;2023-03-16T01:29:21;77518.94;;;-142.53;100.00
4133;BME280;2080;51.038;7.008;2023-03-16T01:31:47;77522.84;;;-142.53;100.00
4133;BME280;2080;51.038;7.008;2023-03-16T01:34:14;77505.34;;;-142.53;100.00
4133;BME280;2080;51.038;7.008;2023-03-16T01:36:43;77501.47;;;-142.53;100.00
4133;BME280;2080;51.038;7.008;2023-03-16T01:39:10;77491.75;;;-142.53;100.00
4133;BME280;2080;51.038;7.008;2023-03-16T01:41:40;77485.91;;;-142.53;100.00
4133;BME280;2080;51.038;7.008;2023-03-16T01:44:11;77480.09;;;-142.53;100.00
4133;BME280;2080;51.038;7.008;2023-03-16T01:46:40;77468.44;;;-142.53;100.00
4133;BME280;2080;51.038;7.008;2023-03-16T01:49:07;77474.25;;;-142.53;100.00
4133;BME280;2080;51.038;7.008;2023-03-16T01:51:56;77458.72;;;-142.53;100.00
4133;BME280;2080;51.038;7.008;2023-03-16T01:54:43;77449.00;;;-142.53;100.00
4133;BME280;2080;51.038;7.008;2023-03-16T01:57:18;77443.16;;;-142.53;100.00
4133;BME280;2080;51.038;7.008;2023-03-16T01:59:51;77450.94;;;-142.53;100.00
4133;BME280;2080;51.038;7.008;2023-03-16T02:02:24;77439.28;;;-142.53;100.00
4133;BME280;2080;51.038;7.008;2023-03-16T02:05:00;77437.34;;;-142.53;100.00
4133;BME280;2080;51.038;7.008;2023-03-16T02:07:31;77435.41;;;-142.53;100.00
4133;BME280;2080;51.038;7.008;2023-03-16T02:10:00;77437.34;;;-142.53;100.00
4133;BME280;2080;51.038;7.008;2023-03-16T02:12:27;77431.50;;;-142.53;100.00
4133;BME280;2080;51.038;7.008;2023-03-16T02:14:55;77439.28;;;-142.53;100.00
4133;BME280;2080;51.038;7.008;2023-03-16T02:17:29;77439.28;;;-142.53;100.00
4133;BME280;2080;51.038;7.008;2023-03-16T02:22:24;77437.34;;;-142.53;100.00
4133;BME280;2080;51.038;7.008;2023-03-16T02:24:51;77435.41;;;-142.53;100.00
4133;BME280;2080;51.038;7.008;2023-03-16T02:27:26;77433.47;;;-142.53;100.00
4133;BME280;2080;51.038;7.008;2023-03-16T02:30:28;77443.16;;;-142.53;100.00
4133;BME280;2080;51.038;7.008;2023-03-16T02:32:59;77443.16;;;-142.53;100.00
4133;BME280;2080;51.038;7.008;2023-03-16T02:35:28;77443.16;;;-142.53;100.00
4133;BME280;2080;51.038;7.008;2023-03-16T02:37:53;77437.34;;;-142.53;100.00
4133;BME280;2080;51.038;7.008;2023-03-16T02:40:25;77439.28;;;-142.53;100.00
4133;BME280;2080;51.038;7.008;2023-03-16T02:42:59;77435.41;;;-142.53;100.00
4133;BME280;2080;51.038;7.008;2023-03-16T02:45:57;77447.06;;;-142.53;100.00
4133;BME280;2080;51.038;7.008;2023-03-16T02:50:56;77439.28;;;-142.53;100.00
4133;BME280;2080;51.038;7.008;2023-03-16T02:53:22;77439.28;;;-142.53;100.00
4133;BME280;2080;51.038;7.008;2023-03-16T02:55:47;77433.47;;;-142.53;100.00
4133;BME280;2080;51.038;7.008;2023-03-16T02:58:13;77423.75;;;-142.53;100.00
4133;BME280;2080;51.038;7.008;2023-03-16T03:00:42;77435.41;;;-142.53;100.00
4133;BME280;2080;51.038;7.008;2023-03-16T03:03:07;77423.75;;;-142.53;100.00
4133;BME280;2080;51.038;7.008;2023-03-16T03:05:36;77404.31;;;-142.53;100.00
4133;BME280;2080;51.038;7.008;2023-03-16T03:08:03;77400.44;;;-142.53;100.00
4133;BME280;2080;51.038;7.008;2023-03-16T03:10:31;77402.38;;;-142.53;100.00
4133;BME280;2080;51.038;7.008;2023-03-16T03:12:59;77414.03;;;-142.53;100.00
4133;BME280;2080;51.038;7.008;2023-03-16T03:15:25;77388.78;;;-142.53;100.00
4133;BME280;2080;51.038;7.008;2023-03-16T03:17:52;77396.53;;;-142.53;100.00
4133;BME280;2080;51.038;7.008;2023-03-16T03:20:18;77392.66;;;-142.53;100.00
4133;BME280;2080;51.038;7.008;2023-03-16T03:22:48;77386.81;;;-142.53;100.00
4133;BME280;2080;51.038;7.008;2023-03-16T03:25:18;77369.34;;;-142.53;100.00
4133;BME280;2080;51.038;7.008;2023-03-16T03:27:45;77373.22;;;-142.53;100.00
4133;BME280;2080;51.038;7.008;2023-03-16T03:30:14;77377.13;;;-142.53;98.29
4133;BME280;2080;51.038;7.008;2023-03-16T03:32:40;77369.34;;;-142.53;100.00
4133;BME280;2080;51.038;7.008;2023-03-16T03:35:06;77381.00;;;-142.53;100.00
4133;BME280;2080;51.038;7.008;2023-03-16T03:37:32;77381.00;;;-142.53;100.00
4133;BME280;2080;51.038;7.008;2023-03-16T03:39:57;77388.78;;;-142.53;100.00
4133;BME280;2080;51.038;7.008;2023-03-16T03:42:25;77386.81;;;-142.53;100.00
4133;BME280;2080;51.038;7.008;2023-03-16T03:44:53;77384.88;;;-142.53;100.00
4133;BME280;2080;51.038;7.008;2023-03-16T03:47:18;77384.88;;;-142.53;100.00
4133;BME280;2080;51.038;7.008;2023-03-16T03:49:44;77381.00;;;-142.53;100.00
4133;BME280;2080;51.038;7.008;2023-03-16T03:52:10;77388.78;;;-142.53;100.00
4133;BME280;2080;51.038;7.008;2023-03-16T03:54:35;77396.53;;;-142.53;100.00
4133;BME280;2080;51.038;7.008;2023-03-16T03:57:00;77392.66;;;-142.53;100.00
4133;BME280;2080;51.038;7.008;2023-03-16T03:59:30;77379.06;;;-142.53;100.00
4133;BME280;2080;51.038;7.008;2023-03-16T04:01:58;77375.16;;;-142.53;100.00
4133;BME280;2080;51.038;7.008;2023-03-16T04:04:26;77388.78;;;-142.53;100.00
4133;BME280;2080;51.038;7.008;2023-03-16T04:06:53;77388.78;;;-142.53;100.00
4133;BME280;2080;51.038;7.008;2023-03-16T04:09:21;77394.59;;;-142.53;100.00
4133;BME280;2080;51.038;7.008;2023-03-16T04:11:46;77398.47;;;-142.53;100.00
4133;BME280;2080;51.038;7.008;2023-03-16T04:14:12;77404.31;;;-142.53;100.00
4133;BME280;2080;51.038;7.008;2023-03-16T04:16:37;77400.44;;;-142.53;100.00
4133;BME280;2080;51.038;7.008;2023-03-16T04:19:07;77404.31;;;-142.53;100.00
4133;BME280;2080;51.038;7.008;2023-03-16T04:21:33;77400.44;;;-142.53;100.00
4133;BME280;2080;51.038;7.008;2023-03-16T04:23:58;77390.72;;;-142.53;100.00
4133;BME280;2080;51.038;7.008;2023-03-16T04:26:25;77373.22;;;-142.53;100.00
4133;BME280;2080;51.038;7.008;2023-03-16T04:28:51;77377.13;;;-142.53;100.00
4133;BME280;2080;51.038;7.008;2023-03-16T04:31:17;77369.34;;;-142.53;100.00
4133;BME280;2080;51.038;7.008;2023-03-16T04:33:42;77377.13;;;-142.53;100.00
4133;BME280;2080;51.038;7.008;2023-03-16T04:36:08;77373.22;;;-142.53;100.00
4133;BME280;2080;51.038;7.008;2023-03-16T04:38:34;77355.75;;;-142.53;100.00
4133;BME280;2080;51.038;7.008;2023-03-16T04:41:00;77346.03;;;-142.53;100.00
4133;BME280;2080;51.038;7.008;2023-03-16T04:43:29;77342.13;;;-142.53;100.00
4133;BME280;2080;51.038;7.008;2023-03-16T04:46:01;77353.78;;;-142.53;100.00
4133;BME280;2080;51.038;7.008;2023-03-16T04:48:30;77344.09;;;-142.53;100.00
4133;BME280;2080;51.038;7.008;2023-03-16T04:50:56;77342.13;;;-142.53;100.00
4133;BME280;2080;51.038;7.008;2023-03-16T04:53:24;77326.59;;;-142.53;100.00
4133;BME280;2080;51.038;7.008;2023-03-16T04:55:52;77330.47;;;-142.53;100.00
4133;BME280;2080;51.038;7.008;2023-03-16T04:58:17;77320.78;;;-142.53;100.00
4133;BME280;2080;51.038;7.008;2023-03-16T05:00:45;77314.94;;;-142.53;100.00
4133;BME280;2080;51.038;7.008;2023-03-16T05:03:10;77320.78;;;-142.53;100.00
4133;BME280;2080;51.038;7.008;2023-03-16T05:05:36;77311.06;;;-142.53;100.00
4133;BME280;2080;51.038;7.008;2023-03-16T05:08:02;77314.94;;;-142.53;100.00
4133;BME280;2080;51.038;7.008;2023-03-16T05:10:30;77314.94;;;-142.53;100.00
4133;BME280;2080;51.038;7.008;2023-03-16T05:12:59;77311.06;;;-142.53;100.00
4133;BME280;2080;51.038;7.008;2023-03-16T05:15:24;77303.28;;;-142.53;100.00
4133;BME280;2080;51.038;7.008;2023-03-16T05:17:50;77307.16;;;-142.53;100.00
4133;BME280;2080;51.038;7.008;2023-03-16T05:20:20;77299.41;;;-142.53;100.00
4133;BME280;2080;51.038;7.008;2023-03-16T05:22:46;77303.28;;;-142.53;100.00
4133;BME280;2080;51.038;7.008;2023-03-16T05:25:16;77295.50;;;-142.53;100.00
4133;BME280;2080;51.038;7.008;2023-03-16T05:27:43;77287.75;;;-142.53;100.00
4133;BME280;2080;51.038;7.008;2023-03-16T05:30:10;77283.84;;;-142.53;100.00
4133;BME280;2080;51.038;7.008;2023-03-16T05:32:36;77291.63;;;-142.53;100.00
4133;BME280;2080;51.038;7.008;2023-03-16T05:35:03;77276.09;;;-142.53;100.00
4133;BME280;2080;51.038;7.008;2023-03-16T05:37:31;77268.31;;;-142.53;100.00
4133;BME280;2080;51.038;7.008;2023-03-16T05:39:56;77268.31;;;-142.53;100.00
4133;BME280;2080;51.038;7.008;2023-03-16T05:42:23;77264.44;;;-142.53;99.85
4133;BME280;2080;51.038;7.008;2023-03-16T05:44:51;77248.88;;;-142.53;100.00
4133;BME280;2080;51.038;7.008;2023-03-16T05:47:16;77256.66;;;-142.53;100.00
4133;BME280;2080;51.038;7.008;2023-03-16T05:49:42;77258.59;;;-142.53;98.75
4133;BME280;2080;51.038;7.008;2023-03-16T05:52:07;77250.81;;;-142.53;100.00
4133;BME280;2080;51.038;7.008;2023-03-16T05:54:32;77252.78;;;-142.53;98.50
4133;BME280;2080;51.038;7.008;2023-03-16T05:56:58;77245.00;;;-142.53;98.93
4133;BME280;2080;51.038;7.008;2023-03-16T05:59:26;77250.81;;;-142.53;100.00
4133;BME280;2080;51.038;7.008;2023-03-16T06:01:53;77246.94;;;-142.53;99.06
4133;BME280;2080;51.038;7.008;2023-03-16T06:04:19;77237.22;;;-142.53;100.00
4133;BME280;2080;51.038;7.008;2023-03-16T06:06:44;77245.00;;;-142.53;98.46
4133;BME280;2080;51.038;7.008;2023-03-16T06:09:09;77243.06;;;-142.53;99.12
4133;BME280;2080;51.038;7.008;2023-03-16T06:11:37;77237.22;;;-142.53;97.42
4133;BME280;2080;51.038;7.008;2023-03-16T06:14:03;77213.91;;;-142.53;97.94
4133;BME280;2080;51.038;7.008;2023-03-16T06:16:30;77192.53;;;-142.53;97.87
4133;BME280;2080;51.038;7.008;2023-03-16T06:18:56;77171.16;;;-142.53;98.08
4133;BME280;2080;51.038;7.008;2023-03-16T06:21:22;77167.28;;;-142.53;97.25
4133;BME280;2080;51.038;7.008;2023-03-16T06:23:47;77167.28;;;-142.53;96.63
4133;BME280;2080;51.038;7.008;2023-03-16T06:26:12;77151.75;;;-142.53;99.47
4133;BME280;2080;51.038;7.008;2023-03-16T06:28:38;77142.03;;;-142.53;99.08
4133;BME280;2080;51.038;7.008;2023-03-16T06:31:03;77132.31;;;-142.53;98.79
4133;BME280;2080;51.038;7.008;2023-03-16T06:33:29;77140.09;;;-142.53;95.38
4133;BME280;2080;51.038;7.008;2023-03-16T06:35:54;77124.53;;;-142.53;95.45
4133;BME280;2080;51.038;7.008;2023-03-16T06:38:19;77101.22;;;-142.53;92.22
4133;BME280;2080;51.038;7.008;2023-03-16T06:40:45;77087.63;;;-142.53;91.28
4133;BME280;2080;51.038;7.008;2023-03-16T06:43:10;77087.63;;;-142.53;90.51
4133;BME280;2080;51.038;7.008;2023-03-16T06:45:38;77087.63;;;-142.53;91.39
4133;BME280;2080;51.038;7.008;2023-03-16T06:48:03;77085.69;;;-142.53;90.76
4133;BME280;2080;51.038;7.008;2023-03-16T06:50:30;77062.38;;;-142.53;92.32
4133;BME280;2080;51.038;7.008;2023-03-16T06:52:56;77058.50;;;-142.53;89.01
4133;BME280;2080;51.038;7.008;2023-03-16T06:55:21;77050.72;;;-142.53;88.04
4133;BME280;2080;51.038;7.008;2023-03-16T06:57:46;77048.78;;;-142.53;87.30
4133;BME280;2080;51.038;7.008;2023-03-16T07:00:14;77042.94;;;-142.53;86.28
4133;BME280;2080;51.038;7.008;2023-03-16T07:02:40;77027.41;;;-142.53;87.74
4133;BME280;2080;51.038;7.008;2023-03-16T07:05:12;77009.94;;;-142.53;87.95
4133;BME280;2080;51.038;7.008;2023-03-16T07:07:41;77011.88;;;-142.53;86.49
4133;BME280;2080;51.038;7.008;2023-03-16T07:10:14;77004.09;;;-142.53;94.66
4133;BME280;2080;51.038;7.008;2023-03-16T07:12:43;76996.31;;;-142.53;94.63
4133;BME280;2080;51.038;7.008;2023-03-16T07:15:09;76984.66;;;-142.53;90.82
4133;BME280;2080;51.038;7.008;2023-03-16T07:17:35;76973.00;;;-142.53;89.84
4133;BME280;2080;51.038;7.008;2023-03-16T07:20:04;76965.25;;;-142.53;88.77
4133;BME280;2080;51.038;7.008;2023-03-16T07:22:34;76965.25;;;-142.53;85.44
4133;BME280;2080;51.038;7.008;2023-03-16T07:25:03;76953.59;;;-142.53;86.13
4133;BME280;2080;51.038;7.008;2023-03-16T07:27:31;76941.94;;;-142.53;86.10
4133;BME280;2080;51.038;7.008;2023-03-16T07:29:59;76934.16;;;-142.53;84.84
4133;BME280;2080;51.038;7.008;2023-03-16T07:32:28;76920.56;;;-142.53;83.10
4133;BME280;2080;51.038;7.008;2023-03-16T07:34:54;76922.50;;;-142.53;83.26
4133;BME280;2080;51.038;7.008;2023-03-16T07:37:21;76918.63;;;-142.53;83.16
4133;BME280;2080;51.038;7.008;2023-03-16T07:39:54;76914.75;;;-142.53;81.80
4133;BME280;2080;51.038;7.008;2023-03-16T07:42:22;76891.44;;;-142.53;84.16
4133;BME280;2080;51.038;7.008;2023-03-16T07:44:50;76891.44;;;-142.53;80.71
4133;BME280;2080;51.038;7.008;2023-03-16T07:47:16;76868.13;;;-142.53;80.92
4133;BME280;2080;51.038;7.008;2023-03-16T07:49:41;76858.41;;;-142.53;81.62
4133;BME280;2080;51.038;7.008;2023-03-16T07:52:08;76840.91;;;-142.53;81.55
4133;BME280;2080;51.038;7.008;2023-03-16T07:54:36;76829.25;;;-142.53;79.36
4133;BME280;2080;51.038;7.008;2023-03-16T07:57:01;76813.72;;;-142.53;78.57
4133;BME280;2080;51.038;7.008;2023-03-16T07:59:29;76802.06;;;-142.53;77.34
4133;BME280;2080;51.038;7.008;2023-03-16T08:01:55;76782.63;;;-142.53;78.51
4133;BME280;2080;51.038;7.008;2023-03-16T08:04:25;76747.66;;;-142.53;76.50
4133;BME280;2080;51.038;7.008;2023-03-16T08:06:55;76743.78;;;-142.53;76.14
4133;BME280;2080;51.038;7.008;2023-03-16T08:09:25;76732.13;;;-142.53;75.77
4133;BME280;2080;51.038;7.008;2023-03-16T08:11:53;76720.47;;;-142.53;75.46
4133;BME280;2080;51.038;7.008;2023-03-16T08:14:18;76720.47;;;-142.53;74.50
4133;BME280;2080;51.038;7.008;2023-03-16T08:16:44;76712.72;;;-142.53;74.81
4133;BME280;2080;51.038;7.008;2023-03-16T08:19:09;76697.16;;;-142.53;77.90
4133;BME280;2080;51.038;7.008;2023-03-16T08:21:38;76697.16;;;-142.53;75.48
4133;BME280;2080;51.038;7.008;2023-03-16T08:24:06;76689.41;;;-142.53;75.32
4133;BME280;2080;51.038;7.008;2023-03-16T08:26:35;76662.19;;;-142.53;73.88
4133;BME280;2080;51.038;7.008;2023-03-16T08:29:00;76652.50;;;-142.53;75.45
4133;BME280;2080;51.038;7.008;2023-03-16T08:31:27;76629.19;;;-142.53;78.03
4133;BME280;2080;51.038;7.008;2023-03-16T08:33:59;76638.91;;;-142.53;73.26
4133;BME280;2080;51.038;7.008;2023-03-16T08:36:26;76621.41;;;-142.53;71.72
4133;BME280;2080;51.038;7.008;2023-03-16T08:38:55;76600.03;;;-142.53;72.58
4133;BME280;2080;51.038;7.008;2023-03-16T08:41:21;76588.38;;;-142.53;71.29
4133;BME280;2080;51.038;7.008;2023-03-16T08:43:47;76572.84;;;-142.53;70.12
4133;BME280;2080;51.038;7.008;2023-03-16T08:46:13;76576.72;;;-142.53;65.83
4133;BME280;2080;51.038;7.008;2023-03-16T08:48:39;76561.19;;;-142.53;68.81
4133;BME280;2080;51.038;7.008;2023-03-16T08:51:06;76537.88;;;-142.53;69.37
4133;BME280;2080;51.038;7.008;2023-03-16T08:53:32;76522.34;;;-142.53;66.29
4133;BME280;2080;51.038;7.008;2023-03-16T08:56:05;76506.81;;;-142.53;65.88
4133;BME280;2080;51.038;7.008;2023-03-16T08:58:31;76537.88;;;-142.53;64.64
4133;BME280;2080;51.038;7.008;2023-03-16T09:00:59;76522.34;;;-142.53;62.28
4133;BME280;2080;51.038;7.008;2023-03-16T09:03:27;76522.34;;;-142.53;62.96
4133;BME280;2080;51.038;7.008;2023-03-16T09:05:53;76518.47;;;-142.53;64.03
4133;BME280;2080;51.038;7.008;2023-03-16T09:08:27;76530.13;;;-142.53;62.13
4133;BME280;2080;51.038;7.008;2023-03-16T09:10:59;76534.00;;;-142.53;62.71
4133;BME280;2080;51.038;7.008;2023-03-16T09:13:25;76506.81;;;-142.53;63.79
4133;BME280;2080;51.038;7.008;2023-03-16T09:15:51;76471.84;;;-142.53;62.88
4133;BME280;2080;51.038;7.008;2023-03-16T09:18:21;76460.19;;;-142.53;62.99
4133;BME280;2080;51.038;7.008;2023-03-16T09:20:51;76448.53;;;-142.53;64.68
4133;BME280;2080;51.038;7.008;2023-03-16T09:23:17;76440.78;;;-142.53;62.12
4133;BME280;2080;51.038;7.008;2023-03-16T09:25:47;76429.13;;;-142.53;61.92
4133;BME280;2080;51.038;7.008;2023-03-16T09:28:13;76390.28;;;-142.53;63.41
4133;BME280;2080;51.038;7.008;2023-03-16T09:30:40;76347.53;;;-142.53;61.64
4133;BME280;2080;51.038;7.008;2023-03-16T09:33:08;76332.00;;;-142.53;58.46
4133;BME280;2080;51.038;7.008;2023-03-16T09:35:37;76300.91;;;-142.53;55.70
4133;BME280;2080;51.038;7.008;2023-03-16T09:38:05;76250.41;;;-142.53;54.88
4133;BME280;2080;51.038;7.008;2023-03-16T09:40:32;76203.81;;;-142.53;53.64
4133;BME280;2080;51.038;7.008;2023-03-16T09:46:23;76184.38;;;-142.53;50.57
4133;BME280;2080;51.038;7.008;2023-03-16T09:48:24;76168.84;;;-142.53;49.98
4133;BME280;2080;51.038;7.008;2023-03-16T09:50:55;76118.34;;;-142.53;52.72
4133;BME280;2080;51.038;7.008;2023-03-16T09:53:28;76102.81;;;-142.53;50.97
4133;BME280;2080;51.038;7.008;2023-03-16T09:56:09;76102.81;;;-142.53;50.05
4133;BME280;2080;51.038;7.008;2023-03-16T09:58:40;76075.63;;;-142.53;49.59
4133;BME280;2080;51.038;7.008;2023-03-16T10:01:12;76038.72;;;-142.53;53.17
4133;BME280;2080;51.038;7.008;2023-03-16T10:07:00;76060.09;;;-142.53;49.02
4133;BME280;2080;51.038;7.008;2023-03-16T10:12:11;76108.63;;;-142.53;48.17
4133;BME280;2080;51.038;7.008;2023-03-16T10:17:22;76118.34;;;-142.53;49.40
4133;BME280;2080;51.038;7.008;2023-03-16T10:19:58;76153.31;;;-142.53;48.35
4133;BME280;2080;51.038;7.008;2023-03-16T10:22:29;76145.53;;;-142.53;52.64
4133;BME280;2080;51.038;7.008;2023-03-16T10:27:45;76172.72;;;-142.53;51.91
4133;BME280;2080;51.038;7.008;2023-03-16T10:32:41;76143.59;;;-142.53;50.28
4133;BME280;2080;51.038;7.008;2023-03-16T10:35:41;76091.16;;;-142.53;49.42
4133;BME280;2080;51.038;7.008;2023-03-16T10:38:38;76079.50;;;-142.53;48.63
4133;BME280;2080;51.038;7.008;2023-03-16T10:43:45;76040.66;;;-142.53;47.74
4133;BME280;2080;51.038;7.008;2023-03-16T10:46:11;76030.94;;;-142.53;47.13
4133;BME280;2080;51.038;7.008;2023-03-16T10:48:37;76036.78;;;-142.53;45.73
4133;BME280;2080;51.038;7.008;2023-03-16T10:51:11;76013.47;;;-142.53;47.08
4133;BME280;2080;51.038;7.008;2023-03-16T10:53:40;76017.34;;;-142.53;45.70
4133;BME280;2080;51.038;7.008;2023-03-16T10:56:11;75974.63;;;-142.53;47.03
4133;BME280;2080;51.038;7.008;2023-03-16T10:58:41;75943.56;;;-142.53;46.30
4133;BME280;2080;51.038;7.008;2023-03-16T11:01:24;75933.84;;;-142.53;45.37
4133;BME280;2080;51.038;7.008;2023-03-16T11:03:57;75910.53;;;-142.53;45.43
4133;BME280;2080;51.038;7.008;2023-03-16T11:06:26;75904.72;;;-142.53;45.36
4133;BME280;2080;51.038;7.008;2023-03-16T11:09:04;75920.25;;;-142.53;46.45
4133;BME280;2080;51.038;7.008;2023-03-16T11:11:34;75904.72;;;-142.53;45.63
4133;BME280;2080;51.038;7.008;2023-03-16T11:14:09;75898.91;;;-142.53;46.15
4133;BME280;2080;51.038;7.008;2023-03-16T11:16:40;75904.72;;;-142.53;45.76
4133;BME280;2080;51.038;7.008;2023-03-16T11:19:34;75908.59;;;-142.53;45.96
4133;BME280;2080;51.038;7.008;2023-03-16T11:30:04;75935.78;;;-142.53;47.20
4133;BME280;2080;51.038;7.008;2023-03-16T11:32:39;75980.47;;;-142.53;45.44
4133;BME280;2080;51.038;7.008;2023-03-16T11:40:34;75951.31;;;-142.53;45.66
4133;BME280;2080;51.038;7.008;2023-03-16T11:53:48;75955.22;;;-142.53;45.27
4133;BME280;2080;51.038;7.008;2023-03-16T12:01:50;75902.78;;;-142.53;45.12
4133;BME280;2080;51.038;7.008;2023-03-16T12:09:40;75873.66;;;-142.53;44.10
4133;BME280;2080;51.038;7.008;2023-03-16T12:12:43;75867.81;;;-142.53;43.80
4133;BME280;2080;51.038;7.008;2023-03-16T12:17:41;75776.53;;;-142.53;42.94
4133;BME280;2080;51.038;7.008;2023-03-16T12:20:25;75726.06;;;-142.53;42.58
4133;BME280;2080;51.038;7.008;2023-03-16T12:23:04;75685.28;;;-142.53;43.16
4133;BME280;2080;51.038;7.008;2023-03-16T12:25:38;75710.53;;;-142.53;41.56
4133;BME280;2080;51.038;7.008;2023-03-16T12:28:26;75677.50;;;-142.53;42.52
4133;BME280;2080;51.038;7.008;2023-03-16T12:39:06;75683.34;;;-142.53;41.91
4133;BME280;2080;51.038;7.008;2023-03-16T12:44:54;75644.50;;;-142.53;42.10
4133;BME280;2080;51.038;7.008;2023-03-16T12:50:12;75630.91;;;-142.53;41.13
4133;BME280;2080;51.038;7.008;2023-03-16T12:52:47;75605.66;;;-142.53;41.13
4133;BME280;2080;51.038;7.008;2023-03-16T12:55:18;75586.25;;;-142.53;40.82
4133;BME280;2080;51.038;7.008;2023-03-16T12:57:47;75605.66;;;-142.53;40.28
4133;BME280;2080;51.038;7.008;2023-03-16T13:00:16;75601.78;;;-142.53;40.21
4133;BME280;2080;51.038;7.008;2023-03-16T13:02:49;75555.16;;;-142.53;42.02
4133;BME280;2080;51.038;7.008;2023-03-16T13:05:17;75551.28;;;-142.53;41.06
4133;BME280;2080;51.038;7.008;2023-03-16T13:08:13;75551.28;;;-142.53;39.82
4133;BME280;2080;51.038;7.008;2023-03-16T13:10:40;75535.75;;;-142.53;40.18
4133;BME280;2080;51.038;7.008;2023-03-16T13:13:15;75539.63;;;-142.53;39.66
4133;BME280;2080;51.038;7.008;2023-03-16T13:15:43;75524.09;;;-142.53;40.10
4133;BME280;2080;51.038;7.008;2023-03-16T13:20:57;75543.50;;;-142.53;42.14
4133;BME280;2080;51.038;7.008;2023-03-16T13:23:45;75559.06;;;-142.53;39.84
4133;BME280;2080;51.038;7.008;2023-03-16T13:28:39;75564.88;;;-142.53;39.77
4133;BME280;2080;51.038;7.008;2023-03-16T13:31:19;75578.47;;;-142.53;39.85
4133;BME280;2080;51.038;7.008;2023-03-16T13:33:46;75572.66;;;-142.53;40.42
4133;BME280;2080;51.038;7.008;2023-03-16T13:36:12;75605.66;;;-142.53;39.88
4133;BME280;2080;51.038;7.008;2023-03-16T13:38:38;75607.59;;;-142.53;40.64
4133;BME280;2080;51.038;7.008;2023-03-16T13:41:10;75619.25;;;-142.53;40.88
4133;BME280;2080;51.038;7.008;2023-03-16T13:43:41;75605.66;;;-142.53;40.60
4133;BME280;2080;51.038;7.008;2023-03-16T13:46:14;75590.13;;;-142.53;41.88
4133;BME280;2080;51.038;7.008;2023-03-16T13:48:40;75586.25;;;-142.53;40.37
4133;BME280;2080;51.038;7.008;2023-03-16T13:51:13;75570.69;;;-142.53;40.61
4133;BME280;2080;51.038;7.008;2023-03-16T13:53:40;75582.34;;;-142.53;39.49
4133;BME280;2080;51.038;7.008;2023-03-16T13:56:15;75568.75;;;-142.53;40.68
4133;BME280;2080;51.038;7.008;2023-03-16T13:58:46;75553.22;;;-142.53;41.14
4133;BME280;2080;51.038;7.008;2023-03-16T14:01:23;75551.28;;;-142.53;40.53
4133;BME280;2080;51.038;7.008;2023-03-16T14:03:50;75555.16;;;-142.53;40.80
4133;BME280;2080;51.038;7.008;2023-03-16T14:06:26;75590.13;;;-142.53;40.89
4133;BME280;2080;51.038;7.008;2023-03-16T14:08:57;75594.00;;;-142.53;40.48
4133;BME280;2080;51.038;7.008;2023-03-16T14:11:27;75590.13;;;-142.53;40.67
4133;BME280;2080;51.038;7.008;2023-03-16T14:13:54;75572.66;;;-142.53;41.11
4133;BME280;2080;51.038;7.008;2023-03-16T14:16:26;75574.59;;;-142.53;41.07
4133;BME280;2080;51.038;7.008;2023-03-16T14:19:16;75559.06;;;-142.53;40.30
4133;BME280;2080;51.038;7.008;2023-03-16T14:21:44;75582.34;;;-142.53;40.73
4133;BME280;2080;51.038;7.008;2023-03-16T14:24:29;75578.47;;;-142.53;40.15
4133;BME280;2080;51.038;7.008;2023-03-16T14:26:56;75582.34;;;-142.53;41.27
4133;BME280;2080;51.038;7.008;2023-03-16T14:29:29;75586.25;;;-142.53;40.88
4133;BME280;2080;51.038;7.008;2023-03-16T14:31:56;75576.53;;;-142.53;40.59